sensor_id;sensor_type;location;lat;lon;timestamp;P1;durP1;ratioP1;P2;durP2;ratioP2
18102;SDS011;9178;51.120;6.192;2023-04-24T00:01:34;3.73;;;2.33;;
18102;SDS011;9178;51.120;6.192;2023-04-24T00:04:05;4.03;;;2.40;;
18102;SDS011;9178;51.120;6.192;2023-04-24T00:06:37;4.43;;;2.90;;
18102;SDS011;9178;51.120;6.192;2023-04-24T00:09:07;4.87;;;2.83;;
18102;SDS011;9178;51.120;6.192;2023-04-24T00:11:36;4.13;;;3.00;;
18102;SDS011;9178;51.120;6.192;2023-04-24T00:14:04;4.87;;;3.40;;
18102;SDS011;9178;51.120;6.192;2023-04-24T00:16:34;4.73;;;3.13;;
18102;SDS011;9178;51.120;6.192;2023-04-24T00:19:01;4.63;;;3.63;;
18102;SDS011;9178;51.120;6.192;2023-04-24T00:21:30;3.97;;;3.27;;
18102;SDS011;9178;51.120;6.192;2023-04-24T00:23:57;3.90;;;3.27;;
18102;SDS011;9178;51.120;6.192;2023-04-24T00:26:30;4.63;;;3.07;;
18102;SDS011;9178;51.120;6.192;2023-04-24T00:29:00;5.47;;;3.27;;
18102;SDS011;9178;51.120;6.192;2023-04-24T00:31:27;3.60;;;3.30;;
18102;SDS011;9178;51.120;6.192;2023-04-24T00:33:57;4.07;;;2.83;;
18102;SDS011;9178;51.120;6.192;2023-04-24T00:36:24;3.13;;;2.60;;
18102;SDS011;9178;51.120;6.192;2023-04-24T00:38:52;4.17;;;2.97;;
18102;SDS011;9178;51.120;6.192;2023-04-24T00:41:19;4.43;;;3.30;;
18102;SDS011;9178;51.120;6.192;2023-04-24T00:43:51;3.33;;;3.00;;
18102;SDS011;9178;51.120;6.192;2023-04-24T00:46:19;2.93;;;2.67;;
18102;SDS011;9178;51.120;6.192;2023-04-24T00:48:48;3.27;;;3.03;;
18102;SDS011;9178;51.120;6.192;2023-04-24T00:51:15;4.77;;;2.90;;
18102;SDS011;9178;51.120;6.192;2023-04-24T00:53:43;5.37;;;3.27;;
18102;SDS011;9178;51.120;6.192;2023-04-24T00:56:12;4.40;;;3.13;;
18102;SDS011;9178;51.120;6.192;2023-04-24T00:58:42;5.30;;;3.90;;
18102;SDS011;9178;51.120;6.192;2023-04-24T01:01:10;5.40;;;3.97;;
18102;SDS011;9178;51.120;6.192;2023-04-24T01:03:48;6.47;;;4.53;;
18102;SDS011;9178;51.120;6.192;2023-04-24T01:06:23;6.13;;;3.90;;
18102;SDS011;9178;51.120;6.192;2023-04-24T01:08:54;6.93;;;4.20;;
18102;SDS011;9178;51.120;6.192;2023-04-24T01:11:27;6.53;;;4.33;;
18102;SDS011;9178;51.120;6.192;2023-04-24T01:13:55;8.90;;;5.00;;
18102;SDS011;9178;51.120;6.192;2023-04-24T01:16:30;7.27;;;5.07;;
18102;SDS011;9178;51.120;6.192;2023-04-24T01:19:02;4.90;;;4.27;;
18102;SDS011;9178;51.120;6.192;2023-04-24T01:21:30;7.53;;;5.30;;
18102;SDS011;9178;51.120;6.192;2023-04-24T01:24:05;9.00;;;5.50;;
18102;SDS011;9178;51.120;6.192;2023-04-24T01:26:36;6.53;;;5.30;;
18102;SDS011;9178;51.120;6.192;2023-04-24T01:29:03;8.27;;;6.03;;
18102;SDS011;9178;51.120;6.192;2023-04-24T01:31:30;9.27;;;6.63;;
18102;SDS011;9178;51.120;6.192;2023-04-24T01:34:02;11.77;;;5.53;;
18102;SDS011;9178;51.120;6.192;2023-04-24T01:36:33;8.73;;;6.33;;
18102;SDS011;9178;51.120;6.192;2023-04-24T01:39:07;10.43;;;7.03;;
18102;SDS011;9178;51.120;6.192;2023-04-24T01:41:43;13.03;;;7.07;;
18102;SDS011;9178;51.120;6.192;2023-04-24T01:44:17;13.23;;;7.10;;
18102;SDS011;9178;51.120;6.192;2023-04-24T01:46:47;12.47;;;7.40;;
18102;SDS011;9178;51.120;6.192;2023-04-24T01:49:14;9.20;;;7.27;;
18102;SDS011;9178;51.120;6.192;2023-04-24T01:51:41;13.43;;;6.93;;
18102;SDS011;9178;51.120;6.192;2023-04-24T01:54:20;14.90;;;7.43;;
18102;SDS011;9178;51.120;6.192;2023-04-24T01:56:47;11.13;;;7.10;;
18102;SDS011;9178;51.120;6.192;2023-04-24T01:59:17;14.70;;;8.00;;
18102;SDS011;9178;51.120;6.192;2023-04-24T02:01:48;15.80;;;8.67;;
18102;SDS011;9178;51.120;6.192;2023-04-24T02:04:36;11.60;;;7.80;;
18102;SDS011;9178;51.120;6.192;2023-04-24T02:07:03;12.03;;;8.00;;
18102;SDS011;9178;51.120;6.192;2023-04-24T02:09:32;14.27;;;8.90;;
18102;SDS011;9178;51.120;6.192;2023-04-24T02:12:06;16.30;;;8.60;;
18102;SDS011;9178;51.120;6.192;2023-04-24T02:14:33;12.93;;;8.20;;
18102;SDS011;9178;51.120;6.192;2023-04-24T02:17:07;10.77;;;8.43;;
18102;SDS011;9178;51.120;6.192;2023-04-24T02:19:34;13.90;;;8.40;;
18102;SDS011;9178;51.120;6.192;2023-04-24T02:22:02;12.13;;;8.10;;
18102;SDS011;9178;51.120;6.192;2023-04-24T02:24:32;18.27;;;9.33;;
18102;SDS011;9178;51.120;6.192;2023-04-24T02:26:59;14.77;;;7.30;;
18102;SDS011;9178;51.120;6.192;2023-04-24T02:29:27;14.37;;;7.97;;
18102;SDS011;9178;51.120;6.192;2023-04-24T02:32:03;9.50;;;8.07;;
18102;SDS011;9178;51.120;6.192;2023-04-24T02:34:30;11.43;;;7.57;;
18102;SDS011;9178;51.120;6.192;2023-04-24T02:37:00;11.03;;;7.57;;
18102;SDS011;9178;51.120;6.192;2023-04-24T02:39:34;16.57;;;8.60;;
18102;SDS011;9178;51.120;6.192;2023-04-24T02:42:06;12.00;;;8.00;;
18102;SDS011;9178;51.120;6.192;2023-04-24T02:44:33;13.23;;;7.53;;
18102;SDS011;9178;51.120;6.192;2023-04-24T02:47:00;15.37;;;8.47;;
18102;SDS011;9178;51.120;6.192;2023-04-24T02:49:28;12.37;;;8.30;;
18102;SDS011;9178;51.120;6.192;2023-04-24T02:51:55;11.63;;;7.77;;
18102;SDS011;9178;51.120;6.192;2023-04-24T02:54:22;12.33;;;7.73;;
18102;SDS011;9178;51.120;6.192;2023-04-24T02:56:51;12.03;;;7.10;;
18102;SDS011;9178;51.120;6.192;2023-04-24T02:59:18;11.47;;;7.67;;
18102;SDS011;9178;51.120;6.192;2023-04-24T03:01:45;12.07;;;7.60;;
18102;SDS011;9178;51.120;6.192;2023-04-24T03:04:12;11.17;;;7.77;;
18102;SDS011;9178;51.120;6.192;2023-04-24T03:06:40;13.13;;;8.27;;
18102;SDS011;9178;51.120;6.192;2023-04-24T03:09:08;11.70;;;8.47;;
18102;SDS011;9178;51.120;6.192;2023-04-24T03:11:35;10.50;;;8.03;;
18102;SDS011;9178;51.120;6.192;2023-04-24T03:14:03;12.50;;;8.00;;
18102;SDS011;9178;51.120;6.192;2023-04-24T03:16:30;11.57;;;8.10;;
18102;SDS011;9178;51.120;6.192;2023-04-24T03:18:58;13.03;;;8.40;;
18102;SDS011;9178;51.120;6.192;2023-04-24T03:21:25;12.37;;;8.07;;
18102;SDS011;9178;51.120;6.192;2023-04-24T03:23:52;13.40;;;7.93;;
18102;SDS011;9178;51.120;6.192;2023-04-24T03:26:19;10.37;;;7.73;;
18102;SDS011;9178;51.120;6.192;2023-04-24T03:28:46;9.07;;;7.10;;
18102;SDS011;9178;51.120;6.192;2023-04-24T03:31:15;10.30;;;7.40;;
18102;SDS011;9178;51.120;6.192;2023-04-24T03:33:44;12.93;;;7.80;;
18102;SDS011;9178;51.120;6.192;2023-04-24T03:36:11;10.67;;;7.53;;
18102;SDS011;9178;51.120;6.192;2023-04-24T03:38:38;13.03;;;8.40;;
18102;SDS011;9178;51.120;6.192;2023-04-24T03:41:05;11.37;;;6.60;;
18102;SDS011;9178;51.120;6.192;2023-04-24T03:43:32;12.93;;;7.60;;
18102;SDS011;9178;51.120;6.192;2023-04-24T03:45:59;8.90;;;7.20;;
18102;SDS011;9178;51.120;6.192;2023-04-24T03:48:28;8.93;;;6.93;;
18102;SDS011;9178;51.120;6.192;2023-04-24T03:50:58;10.07;;;6.50;;
18102;SDS011;9178;51.120;6.192;2023-04-24T03:53:25;9.83;;;7.20;;
18102;SDS011;9178;51.120;6.192;2023-04-24T03:55:52;11.67;;;6.90;;
18102;SDS011;9178;51.120;6.192;2023-04-24T03:58:20;9.80;;;6.40;;
18102;SDS011;9178;51.120;6.192;2023-04-24T04:00:49;7.40;;;6.53;;
18102;SDS011;9178;51.120;6.192;2023-04-24T04:03:16;8.83;;;6.70;;
18102;SDS011;9178;51.120;6.192;2023-04-24T04:05:44;10.60;;;6.30;;
18102;SDS011;9178;51.120;6.192;2023-04-24T04:08:11;7.97;;;6.10;;
18102;SDS011;9178;51.120;6.192;2023-04-24T04:10:38;9.70;;;6.33;;
18102;SDS011;9178;51.120;6.192;2023-04-24T04:13:06;8.00;;;6.73;;
18102;SDS011;9178;51.120;6.192;2023-04-24T04:15:33;7.90;;;6.63;;
18102;SDS011;9178;51.120;6.192;2023-04-24T04:18:00;8.70;;;6.70;;
18102;SDS011;9178;51.120;6.192;2023-04-24T04:20:27;9.13;;;6.90;;
18102;SDS011;9178;51.120;6.192;2023-04-24T04:22:56;9.00;;;6.60;;
18102;SDS011;9178;51.120;6.192;2023-04-24T04:25:26;7.40;;;6.27;;
18102;SDS011;9178;51.120;6.192;2023-04-24T04:27:54;8.40;;;6.93;;
18102;SDS011;9178;51.120;6.192;2023-04-24T04:30:26;8.43;;;6.47;;
18102;SDS011;9178;51.120;6.192;2023-04-24T04:32:54;10.47;;;7.13;;
18102;SDS011;9178;51.120;6.192;2023-04-24T04:35:21;7.43;;;6.67;;
18102;SDS011;9178;51.120;6.192;2023-04-24T04:37:48;8.47;;;6.77;;
18102;SDS011;9178;51.120;6.192;2023-04-24T04:40:17;9.43;;;6.77;;
18102;SDS011;9178;51.120;6.192;2023-04-24T04:42:47;12.27;;;7.13;;
18102;SDS011;9178;51.120;6.192;2023-04-24T04:45:18;11.93;;;8.00;;
18102;SDS011;9178;51.120;6.192;2023-04-24T04:47:45;10.63;;;7.10;;
18102;SDS011;9178;51.120;6.192;2023-04-24T04:50:12;12.23;;;8.60;;
18102;SDS011;9178;51.120;6.192;2023-04-24T04:52:41;10.47;;;7.83;;
18102;SDS011;9178;51.120;6.192;2023-04-24T04:55:12;11.23;;;7.37;;
18102;SDS011;9178;51.120;6.192;2023-04-24T04:57:42;9.97;;;7.43;;
18102;SDS011;9178;51.120;6.192;2023-04-24T05:00:11;9.80;;;7.63;;
18102;SDS011;9178;51.120;6.192;2023-04-24T05:02:39;10.40;;;7.43;;
18102;SDS011;9178;51.120;6.192;2023-04-24T05:05:08;12.27;;;7.00;;
18102;SDS011;9178;51.120;6.192;2023-04-24T05:07:35;9.77;;;6.67;;
18102;SDS011;9178;51.120;6.192;2023-04-24T05:10:03;11.57;;;7.40;;
18102;SDS011;9178;51.120;6.192;2023-04-24T05:12:30;10.07;;;7.33;;
18102;SDS011;9178;51.120;6.192;2023-04-24T05:15:01;9.83;;;6.73;;
18102;SDS011;9178;51.120;6.192;2023-04-24T05:17:28;9.03;;;7.00;;
18102;SDS011;9178;51.120;6.192;2023-04-24T05:19:55;6.97;;;6.13;;
18102;SDS011;9178;51.120;6.192;2023-04-24T05:22:22;7.43;;;6.33;;
18102;SDS011;9178;51.120;6.192;2023-04-24T05:24:49;7.13;;;5.70;;
18102;SDS011;9178;51.120;6.192;2023-04-24T05:27:21;9.13;;;6.23;;
18102;SDS011;9178;51.120;6.192;2023-04-24T05:29:51;8.80;;;6.30;;
18102;SDS011;9178;51.120;6.192;2023-04-24T05:32:21;7.13;;;5.97;;
18102;SDS011;9178;51.120;6.192;2023-04-24T05:34:52;7.40;;;5.60;;
18102;SDS011;9178;51.120;6.192;2023-04-24T05:37:22;6.43;;;5.70;;
18102;SDS011;9178;51.120;6.192;2023-04-24T05:39:49;8.70;;;5.90;;
18102;SDS011;9178;51.120;6.192;2023-04-24T05:42:16;7.33;;;5.50;;
18102;SDS011;9178;51.120;6.192;2023-04-24T05:44:43;6.20;;;5.50;;
18102;SDS011;9178;51.120;6.192;2023-04-24T05:47:10;8.63;;;5.37;;
18102;SDS011;9178;51.120;6.192;2023-04-24T05:49:39;6.50;;;5.80;;
18102;SDS011;9178;51.120;6.192;2023-04-24T05:52:09;7.20;;;5.37;;
18102;SDS011;9178;51.120;6.192;2023-04-24T05:54:36;6.97;;;5.87;;
18102;SDS011;9178;51.120;6.192;2023-04-24T05:57:03;8.10;;;5.70;;
18102;SDS011;9178;51.120;6.192;2023-04-24T05:59:32;7.03;;;5.50;;
18102;SDS011;9178;51.120;6.192;2023-04-24T06:01:59;8.37;;;6.10;;
18102;SDS011;9178;51.120;6.192;2023-04-24T06:04:28;7.17;;;6.17;;
18102;SDS011;9178;51.120;6.192;2023-04-24T06:06:57;7.40;;;5.60;;
18102;SDS011;9178;51.120;6.192;2023-04-24T06:09:23;7.73;;;6.07;;
18102;SDS011;9178;51.120;6.192;2023-04-24T06:11:50;8.07;;;6.03;;
18102;SDS011;9178;51.120;6.192;2023-04-24T06:14:18;8.73;;;5.80;;
18102;SDS011;9178;51.120;6.192;2023-04-24T06:16:46;7.40;;;5.90;;
18102;SDS011;9178;51.120;6.192;2023-04-24T06:19:13;6.87;;;5.93;;
18102;SDS011;9178;51.120;6.192;2023-04-24T06:21:40;10.07;;;6.37;;
18102;SDS011;9178;51.120;6.192;2023-04-24T06:24:08;6.30;;;5.63;;
18102;SDS011;9178;51.120;6.192;2023-04-24T06:26:35;6.23;;;5.10;;
18102;SDS011;9178;51.120;6.192;2023-04-24T06:29:02;5.87;;;4.93;;
18102;SDS011;9178;51.120;6.192;2023-04-24T06:31:30;5.63;;;4.07;;
18102;SDS011;9178;51.120;6.192;2023-04-24T06:34:11;5.47;;;4.20;;
18102;SDS011;9178;51.120;6.192;2023-04-24T06:36:40;4.20;;;3.80;;
18102;SDS011;9178;51.120;6.192;2023-04-24T06:39:09;4.83;;;3.33;;
18102;SDS011;9178;51.120;6.192;2023-04-24T06:41:36;3.30;;;2.47;;
18102;SDS011;9178;51.120;6.192;2023-04-24T06:44:02;4.97;;;2.70;;
18102;SDS011;9178;51.120;6.192;2023-04-24T06:46:30;2.70;;;2.50;;
18102;SDS011;9178;51.120;6.192;2023-04-24T06:48:57;3.30;;;2.43;;
18102;SDS011;9178;51.120;6.192;2023-04-24T06:51:24;4.70;;;2.93;;
18102;SDS011;9178;51.120;6.192;2023-04-24T06:53:52;5.00;;;2.80;;
18102;SDS011;9178;51.120;6.192;2023-04-24T06:56:22;4.37;;;2.30;;
18102;SDS011;9178;51.120;6.192;2023-04-24T06:58:50;1.70;;;1.60;;
18102;SDS011;9178;51.120;6.192;2023-04-24T07:01:17;1.20;;;1.10;;
18102;SDS011;9178;51.120;6.192;2023-04-24T07:03:46;1.27;;;0.70;;
18102;SDS011;9178;51.120;6.192;2023-04-24T07:06:13;0.80;;;0.80;;
18102;SDS011;9178;51.120;6.192;2023-04-24T07:08:43;1.30;;;0.90;;
18102;SDS011;9178;51.120;6.192;2023-04-24T07:11:10;2.00;;;1.00;;
18102;SDS011;9178;51.120;6.192;2023-04-24T07:13:39;0.63;;;0.60;;
18102;SDS011;9178;51.120;6.192;2023-04-24T07:16:19;1.97;;;0.93;;
18102;SDS011;9178;51.120;6.192;2023-04-24T07:18:46;1.57;;;0.63;;
18102;SDS011;9178;51.120;6.192;2023-04-24T07:21:13;1.57;;;0.80;;
18102;SDS011;9178;51.120;6.192;2023-04-24T07:23:40;0.80;;;0.80;;
18102;SDS011;9178;51.120;6.192;2023-04-24T07:26:10;1.03;;;0.80;;
18102;SDS011;9178;51.120;6.192;2023-04-24T07:28:41;1.10;;;1.00;;
18102;SDS011;9178;51.120;6.192;2023-04-24T07:31:08;1.80;;;1.10;;
18102;SDS011;9178;51.120;6.192;2023-04-24T07:33:41;2.20;;;1.30;;
18102;SDS011;9178;51.120;6.192;2023-04-24T07:36:11;2.43;;;1.87;;
18102;SDS011;9178;51.120;6.192;2023-04-24T07:38:41;2.30;;;1.90;;
18102;SDS011;9178;51.120;6.192;2023-04-24T07:41:08;3.03;;;2.20;;
18102;SDS011;9178;51.120;6.192;2023-04-24T07:43:35;3.07;;;2.77;;
18102;SDS011;9178;51.120;6.192;2023-04-24T07:46:05;4.57;;;3.57;;
18102;SDS011;9178;51.120;6.192;2023-04-24T07:48:32;6.17;;;4.00;;
18102;SDS011;9178;51.120;6.192;2023-04-24T07:51:02;4.80;;;3.80;;
18102;SDS011;9178;51.120;6.192;2023-04-24T07:53:29;6.53;;;4.97;;
18102;SDS011;9178;51.120;6.192;2023-04-24T07:55:56;8.30;;;4.67;;
18102;SDS011;9178;51.120;6.192;2023-04-24T07:58:26;6.27;;;5.27;;
18102;SDS011;9178;51.120;6.192;2023-04-24T08:00:54;7.60;;;5.43;;
18102;SDS011;9178;51.120;6.192;2023-04-24T08:03:25;8.67;;;4.77;;
18102;SDS011;9178;51.120;6.192;2023-04-24T08:05:54;8.73;;;4.87;;
18102;SDS011;9178;51.120;6.192;2023-04-24T08:08:22;8.63;;;4.90;;
18102;SDS011;9178;51.120;6.192;2023-04-24T08:10:52;8.83;;;4.90;;
18102;SDS011;9178;51.120;6.192;2023-04-24T08:13:23;5.40;;;4.30;;
18102;SDS011;9178;51.120;6.192;2023-04-24T08:15:53;8.47;;;4.70;;
18102;SDS011;9178;51.120;6.192;2023-04-24T08:18:20;5.43;;;4.60;;
18102;SDS011;9178;51.120;6.192;2023-04-24T08:20:49;8.20;;;4.30;;
18102;SDS011;9178;51.120;6.192;2023-04-24T08:23:16;6.73;;;4.50;;
18102;SDS011;9178;51.120;6.192;2023-04-24T08:25:44;5.40;;;4.00;;
18102;SDS011;9178;51.120;6.192;2023-04-24T08:28:11;6.27;;;3.77;;
18102;SDS011;9178;51.120;6.192;2023-04-24T08:30:37;5.37;;;3.97;;
18102;SDS011;9178;51.120;6.192;2023-04-24T08:33:04;8.73;;;4.20;;
18102;SDS011;9178;51.120;6.192;2023-04-24T08:35:32;6.50;;;4.40;;
18102;SDS011;9178;51.120;6.192;2023-04-24T08:38:00;7.37;;;4.70;;
18102;SDS011;9178;51.120;6.192;2023-04-24T08:40:27;8.90;;;4.60;;
18102;SDS011;9178;51.120;6.192;2023-04-24T08:42:55;8.90;;;5.47;;
18102;SDS011;9178;51.120;6.192;2023-04-24T08:45:22;11.87;;;5.50;;
18102;SDS011;9178;51.120;6.192;2023-04-24T08:47:52;10.57;;;6.20;;
18102;SDS011;9178;51.120;6.192;2023-04-24T08:50:19;7.77;;;5.47;;
18102;SDS011;9178;51.120;6.192;2023-04-24T08:52:47;13.90;;;6.57;;
18102;SDS011;9178;51.120;6.192;2023-04-24T08:55:18;10.43;;;5.43;;
18102;SDS011;9178;51.120;6.192;2023-04-24T08:57:45;10.77;;;5.83;;
18102;SDS011;9178;51.120;6.192;2023-04-24T09:00:17;12.00;;;6.80;;
18102;SDS011;9178;51.120;6.192;2023-04-24T09:02:46;10.73;;;6.63;;
18102;SDS011;9178;51.120;6.192;2023-04-24T09:05:15;13.60;;;6.93;;
18102;SDS011;9178;51.120;6.192;2023-04-24T09:07:43;10.90;;;6.67;;
18102;SDS011;9178;51.120;6.192;2023-04-24T09:10:13;13.73;;;7.27;;
18102;SDS011;9178;51.120;6.192;2023-04-24T09:12:46;12.20;;;6.77;;
18102;SDS011;9178;51.120;6.192;2023-04-24T09:15:15;15.60;;;7.23;;
18102;SDS011;9178;51.120;6.192;2023-04-24T09:17:43;11.03;;;6.60;;
18102;SDS011;9178;51.120;6.192;2023-04-24T09:20:10;15.37;;;7.13;;
18102;SDS011;9178;51.120;6.192;2023-04-24T09:22:37;15.43;;;7.17;;
18102;SDS011;9178;51.120;6.192;2023-04-24T09:25:06;13.27;;;7.00;;
18102;SDS011;9178;51.120;6.192;2023-04-24T09:27:34;12.57;;;6.57;;
18102;SDS011;9178;51.120;6.192;2023-04-24T09:30:02;8.70;;;6.20;;
18102;SDS011;9178;51.120;6.192;2023-04-24T09:32:30;11.80;;;5.80;;
18102;SDS011;9178;51.120;6.192;2023-04-24T09:35:05;10.07;;;6.10;;
18102;SDS011;9178;51.120;6.192;2023-04-24T09:37:37;9.57;;;5.50;;
18102;SDS011;9178;51.120;6.192;2023-04-24T09:40:10;10.27;;;5.23;;
18102;SDS011;9178;51.120;6.192;2023-04-24T09:42:46;9.17;;;4.30;;
18102;SDS011;9178;51.120;6.192;2023-04-24T09:45:19;10.03;;;4.80;;
18102;SDS011;9178;51.120;6.192;2023-04-24T09:47:51;7.57;;;3.97;;
18102;SDS011;9178;51.120;6.192;2023-04-24T09:50:19;6.87;;;3.27;;
18102;SDS011;9178;51.120;6.192;2023-04-24T09:52:46;7.33;;;4.13;;
18102;SDS011;9178;51.120;6.192;2023-04-24T09:55:23;7.30;;;3.50;;
18102;SDS011;9178;51.120;6.192;2023-04-24T09:57:52;9.87;;;3.93;;
18102;SDS011;9178;51.120;6.192;2023-04-24T10:00:23;11.67;;;3.60;;
18102;SDS011;9178;51.120;6.192;2023-04-24T10:02:54;9.07;;;3.77;;
18102;SDS011;9178;51.120;6.192;2023-04-24T10:05:29;8.77;;;3.30;;
18102;SDS011;9178;51.120;6.192;2023-04-24T10:08:02;10.00;;;3.57;;
18102;SDS011;9178;51.120;6.192;2023-04-24T10:10:33;7.47;;;3.37;;
18102;SDS011;9178;51.120;6.192;2023-04-24T10:13:03;7.77;;;3.63;;
18102;SDS011;9178;51.120;6.192;2023-04-24T10:15:33;9.53;;;3.20;;
18102;SDS011;9178;51.120;6.192;2023-04-24T10:18:00;9.93;;;3.50;;
18102;SDS011;9178;51.120;6.192;2023-04-24T10:20:31;8.83;;;2.87;;
18102;SDS011;9178;51.120;6.192;2023-04-24T10:22:59;11.23;;;3.30;;
18102;SDS011;9178;51.120;6.192;2023-04-24T10:25:27;7.80;;;3.23;;
18102;SDS011;9178;51.120;6.192;2023-04-24T10:28:00;9.70;;;3.10;;
18102;SDS011;9178;51.120;6.192;2023-04-24T10:30:28;6.70;;;3.67;;
18102;SDS011;9178;51.120;6.192;2023-04-24T10:33:01;12.63;;;4.10;;
18102;SDS011;9178;51.120;6.192;2023-04-24T10:35:31;9.80;;;3.90;;
18102;SDS011;9178;51.120;6.192;2023-04-24T10:37:59;14.77;;;5.40;;
18102;SDS011;9178;51.120;6.192;2023-04-24T10:40:30;11.70;;;5.70;;
18102;SDS011;9178;51.120;6.192;2023-04-24T10:42:59;11.23;;;5.70;;
18102;SDS011;9178;51.120;6.192;2023-04-24T10:45:31;11.93;;;4.47;;
18102;SDS011;9178;51.120;6.192;2023-04-24T10:47:58;10.90;;;4.40;;
18102;SDS011;9178;51.120;6.192;2023-04-24T10:50:28;8.17;;;3.70;;
18102;SDS011;9178;51.120;6.192;2023-04-24T10:53:05;9.83;;;3.33;;
18102;SDS011;9178;51.120;6.192;2023-04-24T10:55:40;7.53;;;3.40;;
18102;SDS011;9178;51.120;6.192;2023-04-24T10:58:08;9.77;;;4.50;;
18102;SDS011;9178;51.120;6.192;2023-04-24T11:00:38;8.87;;;3.93;;
18102;SDS011;9178;51.120;6.192;2023-04-24T11:03:12;9.20;;;3.90;;
18102;SDS011;9178;51.120;6.192;2023-04-24T11:05:51;10.13;;;3.50;;
18102;SDS011;9178;51.120;6.192;2023-04-24T11:08:22;8.20;;;3.10;;
18102;SDS011;9178;51.120;6.192;2023-04-24T11:10:57;7.77;;;3.10;;
18102;SDS011;9178;51.120;6.192;2023-04-24T11:16:29;8.13;;;2.87;;
18102;SDS011;9178;51.120;6.192;2023-04-24T11:19:04;7.80;;;2.80;;
18102;SDS011;9178;51.120;6.192;2023-04-24T11:21:38;5.03;;;2.73;;
18102;SDS011;9178;51.120;6.192;2023-04-24T11:24:26;10.17;;;2.60;;
18102;SDS011;9178;51.120;6.192;2023-04-24T11:26:56;4.60;;;2.60;;
18102;SDS011;9178;51.120;6.192;2023-04-24T11:29:44;8.23;;;2.90;;
18102;SDS011;9178;51.120;6.192;2023-04-24T11:32:16;11.93;;;2.40;;
18102;SDS011;9178;51.120;6.192;2023-04-24T11:34:47;6.20;;;2.57;;
18102;SDS011;9178;51.120;6.192;2023-04-24T11:37:15;7.27;;;1.80;;
18102;SDS011;9178;51.120;6.192;2023-04-24T11:39:42;4.97;;;2.00;;
18102;SDS011;9178;51.120;6.192;2023-04-24T11:42:10;7.67;;;1.97;;
18102;SDS011;9178;51.120;6.192;2023-04-24T11:44:40;4.67;;;1.83;;
18102;SDS011;9178;51.120;6.192;2023-04-24T11:47:08;8.50;;;1.80;;
18102;SDS011;9178;51.120;6.192;2023-04-24T11:49:41;5.70;;;1.90;;
18102;SDS011;9178;51.120;6.192;2023-04-24T11:52:10;3.20;;;2.00;;
18102;SDS011;9178;51.120;6.192;2023-04-24T11:54:37;4.10;;;1.50;;
18102;SDS011;9178;51.120;6.192;2023-04-24T11:57:04;5.03;;;1.93;;
18102;SDS011;9178;51.120;6.192;2023-04-24T11:59:35;5.77;;;2.10;;
18102;SDS011;9178;51.120;6.192;2023-04-24T12:02:03;4.03;;;2.00;;
18102;SDS011;9178;51.120;6.192;2023-04-24T12:04:38;5.63;;;1.63;;
18102;SDS011;9178;51.120;6.192;2023-04-24T12:07:06;6.00;;;1.70;;
18102;SDS011;9178;51.120;6.192;2023-04-24T12:09:42;4.73;;;1.80;;
18102;SDS011;9178;51.120;6.192;2023-04-24T12:12:10;4.00;;;1.90;;
18102;SDS011;9178;51.120;6.192;2023-04-24T12:14:47;3.90;;;1.93;;
18102;SDS011;9178;51.120;6.192;2023-04-24T12:17:15;4.60;;;1.70;;
18102;SDS011;9178;51.120;6.192;2023-04-24T12:19:46;3.63;;;1.50;;
18102;SDS011;9178;51.120;6.192;2023-04-24T12:22:14;4.33;;;1.97;;
18102;SDS011;9178;51.120;6.192;2023-04-24T12:25:06;2.93;;;1.57;;
18102;SDS011;9178;51.120;6.192;2023-04-24T12:27:42;2.83;;;1.50;;
18102;SDS011;9178;51.120;6.192;2023-04-24T12:30:19;3.10;;;1.40;;
18102;SDS011;9178;51.120;6.192;2023-04-24T12:32:50;2.73;;;1.20;;
18102;SDS011;9178;51.120;6.192;2023-04-24T12:35:20;2.33;;;1.40;;
18102;SDS011;9178;51.120;6.192;2023-04-24T12:37:51;3.50;;;1.40;;
18102;SDS011;9178;51.120;6.192;2023-04-24T12:40:20;6.83;;;1.60;;
18102;SDS011;9178;51.120;6.192;2023-04-24T12:42:54;3.67;;;1.70;;
18102;SDS011;9178;51.120;6.192;2023-04-24T12:45:23;2.97;;;1.53;;
18102;SDS011;9178;51.120;6.192;2023-04-24T12:47:53;3.30;;;1.50;;
18102;SDS011;9178;51.120;6.192;2023-04-24T12:50:24;3.77;;;1.63;;
18102;SDS011;9178;51.120;6.192;2023-04-24T12:52:51;3.67;;;1.33;;
18102;SDS011;9178;51.120;6.192;2023-04-24T12:55:19;4.50;;;1.43;;
18102;SDS011;9178;51.120;6.192;2023-04-24T12:57:56;3.37;;;1.80;;
18102;SDS011;9178;51.120;6.192;2023-04-24T13:00:23;4.50;;;1.73;;
18102;SDS011;9178;51.120;6.192;2023-04-24T13:02:56;3.90;;;1.90;;
18102;SDS011;9178;51.120;6.192;2023-04-24T13:05:28;4.93;;;1.77;;
18102;SDS011;9178;51.120;6.192;2023-04-24T13:07:57;4.27;;;1.47;;
18102;SDS011;9178;51.120;6.192;2023-04-24T13:10:28;4.77;;;1.73;;
18102;SDS011;9178;51.120;6.192;2023-04-24T13:12:55;2.30;;;1.60;;
18102;SDS011;9178;51.120;6.192;2023-04-24T13:15:23;4.40;;;1.67;;
18102;SDS011;9178;51.120;6.192;2023-04-24T13:17:51;3.87;;;1.67;;
18102;SDS011;9178;51.120;6.192;2023-04-24T13:20:18;6.87;;;2.03;;
18102;SDS011;9178;51.120;6.192;2023-04-24T13:22:54;6.73;;;2.10;;
18102;SDS011;9178;51.120;6.192;2023-04-24T13:25:21;5.60;;;1.40;;
18102;SDS011;9178;51.120;6.192;2023-04-24T13:27:52;2.13;;;1.50;;
18102;SDS011;9178;51.120;6.192;2023-04-24T13:30:20;4.30;;;1.57;;
18102;SDS011;9178;51.120;6.192;2023-04-24T13:32:47;3.37;;;1.40;;
18102;SDS011;9178;51.120;6.192;2023-04-24T13:35:15;4.13;;;1.40;;
18102;SDS011;9178;51.120;6.192;2023-04-24T13:37:42;5.27;;;1.47;;
18102;SDS011;9178;51.120;6.192;2023-04-24T13:40:09;5.53;;;1.43;;
18102;SDS011;9178;51.120;6.192;2023-04-24T13:42:39;3.30;;;1.20;;
18102;SDS011;9178;51.120;6.192;2023-04-24T13:45:16;5.67;;;1.60;;
18102;SDS011;9178;51.120;6.192;2023-04-24T13:47:43;3.03;;;1.70;;
18102;SDS011;9178;51.120;6.192;2023-04-24T13:50:13;2.47;;;1.60;;
18102;SDS011;9178;51.120;6.192;2023-04-24T13:52:40;3.10;;;1.67;;
18102;SDS011;9178;51.120;6.192;2023-04-24T13:55:07;1.93;;;1.20;;
18102;SDS011;9178;51.120;6.192;2023-04-24T13:57:34;4.60;;;1.50;;
18102;SDS011;9178;51.120;6.192;2023-04-24T14:00:02;3.20;;;1.10;;
18102;SDS011;9178;51.120;6.192;2023-04-24T14:02:35;4.10;;;1.33;;
18102;SDS011;9178;51.120;6.192;2023-04-24T14:05:02;1.50;;;1.30;;
18102;SDS011;9178;51.120;6.192;2023-04-24T14:07:31;2.30;;;1.10;;
18102;SDS011;9178;51.120;6.192;2023-04-24T14:10:00;3.83;;;0.93;;
18102;SDS011;9178;51.120;6.192;2023-04-24T14:12:30;2.60;;;1.40;;
18102;SDS011;9178;51.120;6.192;2023-04-24T14:14:57;2.23;;;1.27;;
18102;SDS011;9178;51.120;6.192;2023-04-24T14:17:27;3.93;;;1.20;;
18102;SDS011;9178;51.120;6.192;2023-04-24T14:19:55;5.77;;;1.37;;
18102;SDS011;9178;51.120;6.192;2023-04-24T14:22:24;2.20;;;0.90;;
18102;SDS011;9178;51.120;6.192;2023-04-24T14:24:52;3.43;;;1.27;;
18102;SDS011;9178;51.120;6.192;2023-04-24T14:27:19;2.50;;;1.03;;
18102;SDS011;9178;51.120;6.192;2023-04-24T14:29:54;3.17;;;1.33;;
18102;SDS011;9178;51.120;6.192;2023-04-24T14:32:24;2.53;;;1.13;;
18102;SDS011;9178;51.120;6.192;2023-04-24T14:34:55;1.73;;;1.20;;
18102;SDS011;9178;51.120;6.192;2023-04-24T14:37:25;2.40;;;1.20;;
18102;SDS011;9178;51.120;6.192;2023-04-24T14:39:52;3.07;;;1.17;;
18102;SDS011;9178;51.120;6.192;2023-04-24T14:42:19;2.50;;;1.13;;
18102;SDS011;9178;51.120;6.192;2023-04-24T14:44:52;2.87;;;1.10;;
18102;SDS011;9178;51.120;6.192;2023-04-24T14:47:23;2.60;;;1.10;;
18102;SDS011;9178;51.120;6.192;2023-04-24T14:49:53;3.80;;;1.30;;
18102;SDS011;9178;51.120;6.192;2023-04-24T14:52:22;1.87;;;1.00;;
18102;SDS011;9178;51.120;6.192;2023-04-24T14:54:54;2.90;;;1.30;;
18102;SDS011;9178;51.120;6.192;2023-04-24T14:57:27;2.20;;;1.20;;
18102;SDS011;9178;51.120;6.192;2023-04-24T14:59:57;1.30;;;1.10;;
18102;SDS011;9178;51.120;6.192;2023-04-24T15:02:33;3.50;;;1.20;;
18102;SDS011;9178;51.120;6.192;2023-04-24T15:05:02;4.47;;;1.40;;
18102;SDS011;9178;51.120;6.192;2023-04-24T15:07:34;2.23;;;1.27;;
18102;SDS011;9178;51.120;6.192;2023-04-24T15:10:04;1.43;;;1.20;;
18102;SDS011;9178;51.120;6.192;2023-04-24T15:12:33;1.93;;;1.00;;
18102;SDS011;9178;51.120;6.192;2023-04-24T15:15:00;5.57;;;1.40;;